Time;durP1;ratioP1;P1;durP2;ratioP2;P2;SDS_P1;SDS_P2;PMS_P1;PMS_P2;Temp;Humidity;BMP_temperature;BMP_pressure;BME280_temperature;BME280_humidity;BME280_pressure;Samples;Min_cycle;Max_cycle;Signal;HPM_P1;HPM_P2
2021/09/07 00:01:24;;;;;;;3.97;3.57;;;22.90;55.70;;;;;;4924638;29;20400;-71
2021/09/07 00:03:49;;;;;;;5.13;3.78;;;22.80;55.70;;;;;;4924749;29;20391;-71
2021/09/07 00:06:17;;;;;;;4.05;3.50;;;22.80;55.70;;;;;;4924859;29;20428;-72
2021/09/07 00:08:44;;;;;;;4.60;3.88;;;22.90;55.70;;;;;;4928008;29;20398;-67
2021/09/07 00:11:10;;;;;;;4.35;3.78;;;22.80;55.60;;;;;;4928123;29;21220;-71
2021/09/07 00:13:35;;;;;;;4.28;3.70;;;22.80;55.70;;;;;;4927499;29;20479;-71
2021/09/07 00:16:01;;;;;;;5.27;4.00;;;22.80;55.70;;;;;;4928217;29;20419;-68
2021/09/07 00:18:27;;;;;;;4.40;4.00;;;22.80;55.70;;;;;;4927754;29;20415;-71
2021/09/07 00:20:53;;;;;;;4.25;3.80;;;22.80;55.70;;;;;;4926866;29;20419;-71
2021/09/07 00:23:20;;;;;;;4.60;3.80;;;22.80;55.70;;;;;;4925971;29;21326;-72
2021/09/07 00:25:46;;;;;;;4.20;3.80;;;22.80;55.50;;;;;;4927237;29;20411;-71
2021/09/07 00:28:12;;;;;;;4.50;3.80;;;22.80;55.50;;;;;;4927732;29;20466;-72
2021/09/07 00:30:37;;;;;;;4.40;4.00;;;22.80;55.50;;;;;;4926990;29;20408;-72
2021/09/07 00:33:04;;;;;;;5.05;4.22;;;22.80;55.50;;;;;;4927064;29;20403;-71
2021/09/07 00:35:31;;;;;;;4.97;4.07;;;22.80;55.50;;;;;;4927156;29;20418;-68
2021/09/07 00:37:57;;;;;;;4.50;3.60;;;22.80;55.40;;;;;;4923271;29;20435;-69
2021/09/07 00:40:23;;;;;;;3.85;3.45;;;22.80;55.40;;;;;;4928337;29;20520;-71
2021/09/07 00:42:49;;;;;;;4.07;3.60;;;22.80;55.80;;;;;;4924987;29;20411;-72
2021/09/07 00:45:14;;;;;;;3.90;3.50;;;22.80;55.70;;;;;;4927324;29;20411;-71
2021/09/07 00:47:41;;;;;;;4.70;3.55;;;22.80;55.70;;;;;;4926517;29;20399;-69
2021/09/07 00:50:07;;;;;;;4.25;3.50;;;22.80;55.60;;;;;;4915010;29;20414;-67
2021/09/07 00:52:37;;;;;;;5.35;3.67;;;22.80;55.50;;;;;;4927183;29;20447;-70
2021/09/07 00:55:03;;;;;;;4.32;3.60;;;22.80;55.50;;;;;;4927411;29;20530;-71
2021/09/07 00:57:31;;;;;;;4.55;3.58;;;22.70;55.40;;;;;;4918267;29;20399;-69
2021/09/07 00:59:57;;;;;;;4.50;3.50;;;22.70;55.50;;;;;;4925970;29;20942;-71
2021/09/07 01:02:23;;;;;;;4.18;3.50;;;22.70;55.50;;;;;;4927340;29;20438;-71
2021/09/07 01:04:49;;;;;;;4.95;3.90;;;22.70;55.60;;;;;;4927277;29;20404;-71
2021/09/07 01:07:14;;;;;;;4.47;3.50;;;22.80;55.60;;;;;;4926040;29;20412;-72
2021/09/07 01:09:41;;;;;;;5.20;3.80;;;22.70;55.60;;;;;;4926533;29;21136;-68
2021/09/07 01:12:08;;;;;;;4.00;3.60;;;22.70;55.50;;;;;;4927161;29;20418;-68
2021/09/07 01:14:38;;;;;;;4.43;3.72;;;22.70;55.40;;;;;;4925627;29;20428;-71
2021/09/07 01:17:14;;;;;;;3.85;3.38;;;22.70;55.30;;;;;;4926778;29;20424;-71
2021/09/07 01:19:42;;;;;;;4.17;3.47;;;22.70;55.30;;;;;;4924516;29;20464;-68
2021/09/07 01:22:08;;;;;;;4.47;3.63;;;22.70;55.20;;;;;;4927095;29;20384;-70
2021/09/07 01:24:35;;;;;;;4.45;3.53;;;22.70;55.20;;;;;;4925143;29;20415;-71
2021/09/07 01:27:05;;;;;;;4.47;3.53;;;22.70;55.20;;;;;;4926908;29;21088;-71
2021/09/07 01:29:32;;;;;;;4.07;3.67;;;22.70;55.00;;;;;;4926395;29;20472;-69
2021/09/07 01:32:01;;;;;;;4.45;3.38;;;22.70;55.20;;;;;;4927093;29;20880;-71
2021/09/07 01:34:27;;;;;;;3.97;3.53;;;22.60;55.00;;;;;;4926612;29;20890;-72
2021/09/07 01:36:53;;;;;;;4.20;3.28;;;22.70;55.10;;;;;;4926784;29;20398;-72
2021/09/07 01:39:19;;;;;;;4.70;3.83;;;22.70;55.00;;;;;;4925344;29;20415;-70
2021/09/07 01:41:45;;;;;;;4.63;3.50;;;22.60;55.00;;;;;;4926180;29;20455;-69
2021/09/07 01:44:11;;;;;;;4.82;3.67;;;22.60;55.10;;;;;;4926667;29;20475;-71
2021/09/07 01:46:37;;;;;;;4.20;3.30;;;22.60;55.00;;;;;;4925032;29;20419;-72
2021/09/07 01:49:03;;;;;;;4.60;3.42;;;22.60;55.00;;;;;;4926263;29;20408;-68
2021/09/07 01:51:29;;;;;;;4.70;3.63;;;22.60;54.80;;;;;;4926280;29;20394;-67
2021/09/07 01:53:54;;;;;;;4.03;3.42;;;22.60;55.30;;;;;;4925704;29;20427;-72
2021/09/07 01:56:20;;;;;;;3.70;3.30;;;22.60;54.60;;;;;;4926438;29;20447;-71
2021/09/07 01:58:45;;;;;;;3.63;3.10;;;22.60;54.60;;;;;;4926074;29;20403;-71
2021/09/07 02:01:11;;;;;;;3.97;3.35;;;22.60;54.70;;;;;;4926222;29;20523;-70
2021/09/07 02:03:37;;;;;;;4.18;3.45;;;22.60;54.70;;;;;;4925601;29;20431;-67
2021/09/07 02:06:02;;;;;;;4.35;3.38;;;22.60;54.80;;;;;;4926035;29;20407;-65
2021/09/07 02:08:28;;;;;;;4.03;3.40;;;22.60;55.10;;;;;;4926168;29;21069;-71
2021/09/07 02:10:54;;;;;;;3.80;3.40;;;22.60;54.70;;;;;;4926014;29;20429;-70
2021/09/07 02:13:19;;;;;;;3.90;3.50;;;22.60;54.80;;;;;;4926070;29;20411;-70
2021/09/07 02:15:45;;;;;;;3.40;3.00;;;22.60;54.70;;;;;;4925469;29;20920;-66
2021/09/07 02:18:11;;;;;;;3.80;3.30;;;22.60;54.70;;;;;;4925792;29;20513;-72
2021/09/07 02:20:37;;;;;;;4.13;3.30;;;22.60;54.60;;;;;;4926008;29;20418;-70
2021/09/07 02:23:06;;;;;;;4.00;3.38;;;22.50;54.70;;;;;;4926040;29;20422;-69
2021/09/07 02:25:32;;;;;;;3.70;3.30;;;22.60;54.70;;;;;;4925692;29;20390;-70
2021/09/07 02:27:59;;;;;;;3.63;3.17;;;22.50;54.40;;;;;;4925565;29;20391;-72
2021/09/07 02:30:25;;;;;;;4.20;3.25;;;22.50;54.50;;;;;;4925611;29;20399;-71
2021/09/07 02:32:51;;;;;;;4.30;3.40;;;22.60;54.60;;;;;;4925657;29;20827;-71
2021/09/07 02:35:17;;;;;;;3.55;3.13;;;22.60;54.50;;;;;;4924179;29;20518;-68
2021/09/07 02:37:42;;;;;;;4.07;3.20;;;22.60;54.40;;;;;;4925357;29;20435;-72
2021/09/07 02:40:09;;;;;;;3.80;3.07;;;22.50;54.40;;;;;;4925630;29;21331;-71
2021/09/07 02:42:34;;;;;;;3.85;3.28;;;22.50;54.40;;;;;;4925831;29;20478;-71
2021/09/07 02:45:00;;;;;;;4.40;3.40;;;22.50;54.60;;;;;;4915539;29;20400;-70
2021/09/07 02:47:26;;;;;;;3.60;3.10;;;22.50;54.10;;;;;;4925557;29;20408;-69
2021/09/07 02:49:51;;;;;;;3.58;3.20;;;22.50;54.20;;;;;;4925250;29;20955;-71
2021/09/07 02:52:17;;;;;;;4.10;3.40;;;22.50;54.40;;;;;;4924948;29;21561;-71
2021/09/07 02:54:42;;;;;;;4.00;3.28;;;22.50;54.40;;;;;;4925428;29;20431;-71
2021/09/07 02:57:08;;;;;;;3.55;3.03;;;22.50;54.30;;;;;;4925420;29;20759;-68
2021/09/07 02:59:34;;;;;;;4.00;3.23;;;22.50;54.30;;;;;;4925204;29;20887;-71
2021/09/07 03:01:59;;;;;;;3.60;3.20;;;22.50;54.20;;;;;;4925199;29;20402;-72
2021/09/07 03:04:25;;;;;;;4.17;3.20;;;22.50;54.10;;;;;;4925615;29;20442;-72
2021/09/07 03:06:51;;;;;;;3.88;3.42;;;22.50;54.60;;;;;;4925279;29;20403;-70
2021/09/07 03:09:16;;;;;;;4.07;3.33;;;22.50;54.50;;;;;;4925491;29;20410;-72
2021/09/07 03:11:42;;;;;;;3.80;3.13;;;22.50;54.60;;;;;;4926512;29;20468;-73
2021/09/07 03:14:08;;;;;;;4.57;3.07;;;22.50;55.60;;;;;;4926696;29;20419;-72
2021/09/07 03:16:34;;;;;;;4.78;2.85;;;22.50;54.80;;;;;;4949816;29;20455;-70
2021/09/07 03:19:00;;;;;;;4.05;2.70;;;22.50;55.00;;;;;;4933281;29;20415;-72
2021/09/07 03:21:26;;;;;;;3.97;2.95;;;22.60;56.20;;;;;;4949066;29;20503;-72
2021/09/07 03:23:52;;;;;;;5.13;3.15;;;22.60;56.30;;;;;;4933158;29;20679;-73
2021/09/07 03:26:17;;;;;;;4.25;3.10;;;22.60;56.40;;;;;;4928057;29;20442;-72
2021/09/07 03:28:43;;;;;;;4.60;3.00;;;22.70;55.30;;;;;;4923149;29;20407;-70
2021/09/07 03:31:08;;;;;;;4.22;3.15;;;22.70;56.50;;;;;;4948094;29;20412;-66
2021/09/07 03:33:34;;;;;;;4.93;2.97;;;22.70;56.60;;;;;;4933443;29;20459;-71
2021/09/07 03:36:00;;;;;;;4.30;2.90;;;22.80;56.80;;;;;;4933403;29;20443;-67
2021/09/07 03:38:25;;;;;;;4.00;2.80;;;22.70;56.60;;;;;;4933844;29;20887;-69
2021/09/07 03:40:51;;;;;;;4.50;2.88;;;22.80;57.00;;;;;;4948737;29;20442;-71
2021/09/07 03:43:17;;;;;;;5.27;3.03;;;22.80;57.00;;;;;;4936979;29;21059;-67
2021/09/07 03:45:42;;;;;;;3.67;3.05;;;22.90;57.00;;;;;;4937448;29;20750;-73
2021/09/07 03:48:08;;;;;;;4.57;3.07;;;22.90;56.60;;;;;;4937664;29;20478;-71
2021/09/07 03:50:34;;;;;;;6.93;3.10;;;22.90;56.70;;;;;;4937602;29;20955;-69
2021/09/07 03:53:00;;;;;;;3.67;3.20;;;22.80;55.80;;;;;;4937232;29;20872;-73
2021/09/07 03:55:25;;;;;;;4.80;3.00;;;22.70;55.50;;;;;;4937363;29;20423;-73
2021/09/07 03:57:51;;;;;;;4.80;2.90;;;22.80;56.50;;;;;;4936984;29;20538;-72
2021/09/07 04:00:17;;;;;;;3.80;2.92;;;22.80;56.30;;;;;;4937403;29;20407;-68
2021/09/07 04:02:43;;;;;;;3.42;2.92;;;22.80;56.30;;;;;;4936172;29;20399;-74
2021/09/07 04:05:09;;;;;;;4.53;3.00;;;22.80;56.10;;;;;;4937339;29;20484;-73
2021/09/07 04:07:35;;;;;;;4.23;2.90;;;22.80;55.80;;;;;;4935209;29;20419;-66
2021/09/07 04:10:01;;;;;;;3.90;3.17;;;22.80;55.50;;;;;;4937802;29;20892;-73
2021/09/07 04:12:27;;;;;;;4.00;2.83;;;22.70;55.40;;;;;;4935025;29;20410;-70
2021/09/07 04:14:52;;;;;;;4.37;2.93;;;22.70;55.30;;;;;;4927974;29;20427;-72
2021/09/07 04:17:18;;;;;;;4.60;2.80;;;22.70;55.40;;;;;;4928298;29;20510;-74
2021/09/07 04:19:44;;;;;;;6.37;2.97;;;22.70;55.20;;;;;;4927886;29;20403;-73
2021/09/07 04:22:10;;;;;;;6.45;2.90;;;22.60;55.40;;;;;;4927689;29;20400;-73
2021/09/07 04:24:35;;;;;;;6.20;2.88;;;22.60;55.60;;;;;;4942897;29;20423;-73
2021/09/07 04:27:01;;;;;;;5.95;3.45;;;22.60;55.50;;;;;;4927809;29;20797;-74
2021/09/07 04:29:26;;;;;;;3.97;3.10;;;22.60;55.20;;;;;;4928118;29;20752;-73
2021/09/07 04:31:52;;;;;;;6.43;3.30;;;22.60;54.50;;;;;;4927277;29;20409;-72
2021/09/07 04:34:18;;;;;;;5.17;3.33;;;22.60;53.80;;;;;;4927750;29;20755;-72
2021/09/07 04:36:43;;;;;;;4.53;3.20;;;22.50;52.60;;;;;;4927866;29;20450;-73
2021/09/07 04:39:09;;;;;;;6.30;3.13;;;22.50;52.10;;;;;;4926727;29;20391;-72
2021/09/07 04:41:35;;;;;;;6.03;3.30;;;22.50;51.90;;;;;;4927822;29;20900;-72
2021/09/07 04:44:01;;;;;;;6.85;3.35;;;22.50;52.30;;;;;;4925620;29;21205;-73
2021/09/07 04:46:26;;;;;;;4.47;2.80;;;22.50;52.30;;;;;;4914482;29;20603;-73
2021/09/07 04:48:55;;;;;;;5.55;2.83;;;22.40;52.40;;;;;;4927591;29;20395;-70
2021/09/07 04:51:21;;;;;;;4.85;2.70;;;22.40;52.50;;;;;;4927439;29;20403;-66
2021/09/07 04:53:47;;;;;;;4.88;2.92;;;22.40;52.70;;;;;;4925877;29;20928;-72
2021/09/07 04:56:13;;;;;;;5.03;2.80;;;22.40;52.80;;;;;;4927378;29;20467;-69
2021/09/07 04:58:38;;;;;;;5.68;2.95;;;22.40;53.20;;;;;;4942132;29;20407;-73
2021/09/07 05:01:04;;;;;;;4.20;3.00;;;22.40;52.90;;;;;;4925978;29;20593;-74
2021/09/07 05:03:30;;;;;;;3.73;2.87;;;22.40;53.00;;;;;;4927498;29;20908;-70
2021/09/07 05:05:55;;;;;;;5.38;2.75;;;22.40;53.20;;;;;;4926350;29;20487;-72
2021/09/07 05:08:21;;;;;;;3.57;2.73;;;22.40;53.30;;;;;;4927192;29;20414;-72
2021/09/07 05:10:46;;;;;;;3.77;2.83;;;22.40;53.20;;;;;;4927066;29;20404;-73
2021/09/07 05:13:12;;;;;;;3.97;3.10;;;22.40;53.30;;;;;;4927272;29;20403;-72
2021/09/07 05:15:38;;;;;;;5.28;2.97;;;22.40;53.20;;;;;;4925681;29;20431;-68
2021/09/07 05:18:04;;;;;;;3.20;2.70;;;22.40;53.30;;;;;;4926702;29;20411;-70
2021/09/07 05:20:29;;;;;;;4.10;2.88;;;22.40;53.30;;;;;;4926851;29;20487;-69
2021/09/07 05:22:55;;;;;;;3.33;2.70;;;22.40;53.50;;;;;;4926779;29;20428;-66
2021/09/07 05:25:21;;;;;;;3.88;2.85;;;22.40;53.30;;;;;;4927069;29;20407;-73
2021/09/07 05:27:48;;;;;;;3.37;2.80;;;22.30;53.20;;;;;;4926354;29;20474;-69
2021/09/07 05:30:14;;;;;;;3.85;2.70;;;22.30;53.20;;;;;;4927485;29;20420;-70
2021/09/07 05:32:40;;;;;;;4.03;2.80;;;22.30;53.40;;;;;;4926641;29;20446;-72
2021/09/07 05:35:06;;;;;;;3.67;2.60;;;22.30;53.40;;;;;;4926445;29;20528;-67
2021/09/07 05:37:38;;;;;;;3.28;2.78;;;22.30;53.30;;;;;;4913501;29;20411;-73
2021/09/07 05:40:09;;;;;;;3.70;2.50;;;22.30;53.50;;;;;;4926611;29;20498;-72
2021/09/07 05:42:35;;;;;;;2.90;2.40;;;22.30;53.40;;;;;;4926537;29;20410;-72
2021/09/07 05:45:01;;;;;;;4.30;2.80;;;22.30;53.50;;;;;;4926780;29;20435;-73
2021/09/07 05:47:27;;;;;;;2.97;2.47;;;22.30;53.80;;;;;;4926468;29;20399;-68
2021/09/07 05:49:53;;;;;;;3.60;2.40;;;22.30;53.50;;;;;;4926263;29;20508;-73
2021/09/07 05:52:18;;;;;;;2.97;2.42;;;22.30;53.80;;;;;;4925056;29;21215;-71
2021/09/07 05:54:44;;;;;;;3.23;2.50;;;22.30;53.60;;;;;;4926628;29;20758;-74
2021/09/07 05:57:10;;;;;;;3.40;2.50;;;22.20;53.60;;;;;;4926474;29;20396;-73
2021/09/07 05:59:35;;;;;;;3.47;2.47;;;22.20;53.70;;;;;;4926531;29;20499;-71
2021/09/07 06:02:01;;;;;;;3.20;2.57;;;22.30;53.70;;;;;;4925749;29;20400;-69
2021/09/07 06:04:26;;;;;;;3.35;2.58;;;22.20;53.60;;;;;;4924675;29;20418;-69
2021/09/07 06:06:52;;;;;;;3.20;2.70;;;22.30;53.70;;;;;;4925986;29;20406;-73
2021/09/07 06:09:18;;;;;;;2.92;2.60;;;22.20;53.70;;;;;;4926520;29;20403;-73
2021/09/07 06:11:44;;;;;;;2.80;2.50;;;22.20;53.80;;;;;;4925700;29;20884;-72
2021/09/07 06:14:09;;;;;;;3.42;2.63;;;22.30;53.90;;;;;;4925896;29;20990;-72
2021/09/07 06:16:35;;;;;;;3.20;2.70;;;22.20;53.90;;;;;;4925847;29;20410;-72
2021/09/07 06:19:01;;;;;;;3.00;2.60;;;22.20;53.90;;;;;;4925896;29;20504;-66
2021/09/07 06:21:27;;;;;;;3.15;2.45;;;22.20;53.90;;;;;;4925804;29;20761;-73
2021/09/07 06:23:52;;;;;;;3.28;2.58;;;22.20;54.00;;;;;;4923862;29;20412;-74
2021/09/07 06:26:18;;;;;;;2.80;2.50;;;22.20;54.10;;;;;;4925830;29;20406;-70
2021/09/07 06:28:45;;;;;;;3.30;2.35;;;22.20;54.10;;;;;;4925769;29;20414;-70
2021/09/07 06:31:11;;;;;;;3.60;2.70;;;22.20;54.20;;;;;;4925746;29;20410;-72
2021/09/07 06:33:36;;;;;;;2.80;2.50;;;22.20;54.20;;;;;;4925764;29;20399;-73
2021/09/07 06:36:02;;;;;;;3.17;2.70;;;22.20;54.20;;;;;;4925496;29;20869;-73
2021/09/07 06:38:28;;;;;;;3.50;2.80;;;22.20;54.30;;;;;;4925787;29;20392;-72
2021/09/07 06:40:54;;;;;;;3.33;2.77;;;22.20;54.30;;;;;;4925452;29;20450;-68
2021/09/07 06:43:19;;;;;;;3.60;2.80;;;22.20;54.30;;;;;;4925678;29;20431;-73
2021/09/07 06:45:45;;;;;;;4.10;2.92;;;22.20;54.30;;;;;;4924204;29;20423;-73
2021/09/07 06:48:13;;;;;;;3.90;2.63;;;22.20;54.30;;;;;;4925338;29;20391;-72
2021/09/07 06:50:38;;;;;;;4.63;3.00;;;22.20;54.50;;;;;;4940075;29;20408;-73
2021/09/07 06:53:04;;;;;;;3.20;2.90;;;22.20;54.40;;;;;;4925473;29;20398;-72
2021/09/07 06:55:30;;;;;;;4.20;2.90;;;22.20;54.60;;;;;;4925513;29;20554;-73
2021/09/07 06:57:56;;;;;;;4.13;3.13;;;22.20;54.70;;;;;;4924735;29;20471;-72
2021/09/07 07:00:23;;;;;;;4.28;2.88;;;22.20;54.60;;;;;;4940384;29;20407;-73
2021/09/07 07:02:49;;;;;;;3.93;2.80;;;22.20;54.60;;;;;;4925364;29;20495;-70
2021/09/07 07:05:15;;;;;;;3.70;2.97;;;22.20;54.70;;;;;;4925358;29;20852;-69
2021/09/07 07:07:41;;;;;;;3.28;2.90;;;22.20;54.70;;;;;;4925342;29;20407;-72
2021/09/07 07:10:07;;;;;;;3.38;2.90;;;22.20;54.70;;;;;;4924734;29;20407;-71
2021/09/07 07:12:33;;;;;;;3.50;2.92;;;22.20;54.90;;;;;;4925376;29;20402;-70
2021/09/07 07:14:58;;;;;;;4.00;3.10;;;22.20;55.50;;;;;;4925265;29;20427;-74
2021/09/07 07:17:24;;;;;;;3.58;2.90;;;22.20;54.90;;;;;;4927130;29;20434;-73
2021/09/07 07:19:51;;;;;;;4.40;2.90;;;22.20;54.90;;;;;;4929222;29;20395;-72
2021/09/07 07:22:17;;;;;;;3.95;2.85;;;22.30;54.90;;;;;;4929398;29;20406;-71
2021/09/07 07:24:43;;;;;;;3.50;3.10;;;22.20;55.10;;;;;;4929498;29;20418;-73
2021/09/07 07:27:09;;;;;;;4.00;3.10;;;22.30;55.20;;;;;;4929073;29;20396;-68
2021/09/07 07:29:34;;;;;;;3.97;3.00;;;22.30;55.20;;;;;;4929256;29;20407;-73
2021/09/07 07:32:00;;;;;;;4.40;2.97;;;22.30;55.10;;;;;;4928587;29;20490;-70
2021/09/07 07:34:26;;;;;;;4.10;2.90;;;22.30;55.10;;;;;;4929042;29;20518;-71
2021/09/07 07:36:54;;;;;;;3.25;2.83;;;22.30;55.00;;;;;;4928924;29;20395;-70
2021/09/07 07:39:20;;;;;;;3.75;3.08;;;22.30;55.00;;;;;;4928703;29;20437;-69
2021/09/07 07:41:46;;;;;;;3.50;2.95;;;22.30;55.10;;;;;;4928917;29;20486;-70
2021/09/07 07:44:12;;;;;;;3.78;3.00;;;22.30;55.20;;;;;;4928466;29;20495;-67
2021/09/07 07:46:37;;;;;;;3.63;3.00;;;22.30;55.20;;;;;;4928862;29;20403;-70
2021/09/07 07:49:03;;;;;;;3.40;3.05;;;22.30;55.20;;;;;;4929057;29;21567;-73
2021/09/07 07:51:29;;;;;;;3.50;3.03;;;22.30;55.20;;;;;;4928761;29;21094;-67
2021/09/07 07:53:55;;;;;;;3.53;2.83;;;22.30;55.20;;;;;;4927758;29;20415;-72
2021/09/07 07:56:21;;;;;;;3.45;2.75;;;22.30;55.20;;;;;;4928562;29;20781;-73
2021/09/07 07:58:46;;;;;;;4.13;3.23;;;22.30;55.20;;;;;;4928670;29;20455;-73
2021/09/07 08:01:12;;;;;;;3.75;3.00;;;22.30;55.30;;;;;;4928435;29;20414;-68
2021/09/07 08:03:37;;;;;;;5.00;3.10;;;22.30;55.30;;;;;;4928527;29;20398;-73
2021/09/07 08:06:03;;;;;;;3.58;3.03;;;22.30;55.20;;;;;;4918378;29;20404;-74
2021/09/07 08:08:29;;;;;;;3.90;3.20;;;22.30;55.20;;;;;;4928437;29;20398;-72
2021/09/07 08:10:56;;;;;;;4.10;2.95;;;22.40;55.20;;;;;;4928236;29;20407;-73
2021/09/07 08:13:21;;;;;;;3.80;3.20;;;22.40;55.30;;;;;;4928656;29;20458;-73
2021/09/07 08:15:47;;;;;;;3.93;3.10;;;22.30;55.20;;;;;;4928183;29;20430;-71
2021/09/07 08:18:13;;;;;;;3.65;3.10;;;22.40;55.30;;;;;;4927637;29;20426;-71
2021/09/07 08:20:38;;;;;;;3.57;3.27;;;22.40;55.30;;;;;;4928189;29;20677;-71
2021/09/07 08:23:04;;;;;;;3.42;2.80;;;22.40;55.30;;;;;;4927969;29;20404;-67
2021/09/07 08:25:30;;;;;;;3.67;3.20;;;22.40;55.30;;;;;;4928230;29;20463;-72
2021/09/07 08:27:55;;;;;;;3.85;3.15;;;22.40;55.20;;;;;;4927050;29;20752;-72
2021/09/07 08:30:21;;;;;;;3.63;3.20;;;22.40;55.40;;;;;;4927927;29;20396;-68
2021/09/07 08:32:47;;;;;;;4.00;3.10;;;22.40;55.30;;;;;;4927917;29;20403;-73
2021/09/07 08:35:14;;;;;;;3.47;2.90;;;22.40;55.30;;;;;;4927889;29;20459;-72
2021/09/07 08:37:41;;;;;;;3.45;3.00;;;22.40;55.30;;;;;;4927525;29;20395;-72
2021/09/07 08:40:08;;;;;;;3.90;3.50;;;22.50;55.30;;;;;;4927132;29;20407;-71
2021/09/07 08:42:35;;;;;;;3.92;3.15;;;22.40;55.40;;;;;;4927809;29;20407;-72
2021/09/07 08:45:03;;;;;;;4.05;3.17;;;22.50;55.50;;;;;;4927546;29;20426;-72
2021/09/07 08:47:29;;;;;;;3.57;3.20;;;22.40;55.30;;;;;;4927485;29;20480;-71
2021/09/07 08:49:56;;;;;;;3.70;3.30;;;22.50;55.30;;;;;;4927410;29;20474;-73
2021/09/07 08:52:24;;;;;;;4.03;3.20;;;22.50;55.40;;;;;;4927716;29;20395;-70
2021/09/07 08:54:50;;;;;;;3.92;3.13;;;22.50;55.40;;;;;;4927313;29;20927;-72
2021/09/07 08:57:16;;;;;;;3.97;3.20;;;22.50;55.30;;;;;;4927675;29;20427;-66
2021/09/07 08:59:42;;;;;;;4.10;3.60;;;22.50;55.40;;;;;;4927396;29;20415;-72
2021/09/07 09:02:18;;;;;;;3.83;3.42;;;22.50;55.30;;;;;;4926939;29;20400;-69
2021/09/07 09:04:46;;;;;;;3.95;3.40;;;22.50;55.30;;;;;;4927408;29;20403;-68
2021/09/07 09:07:23;;;;;;;3.58;3.10;;;22.50;55.30;;;;;;4926759;29;20399;-73
2021/09/07 09:09:50;;;;;;;4.25;3.50;;;22.50;55.40;;;;;;4926677;29;20498;-72
2021/09/07 09:12:26;;;;;;;4.18;3.38;;;22.50;55.40;;;;;;4926755;29;20490;-69
2021/09/07 09:14:52;;;;;;;3.88;3.20;;;22.50;55.40;;;;;;4927326;29;20482;-73
2021/09/07 09:17:17;;;;;;;3.92;3.40;;;22.50;55.40;;;;;;4926844;29;20423;-72
2021/09/07 09:19:55;;;;;;;3.70;3.17;;;22.50;55.40;;;;;;4927168;29;20462;-73
2021/09/07 09:22:39;;;;;;;3.80;3.20;;;22.50;55.50;;;;;;4926918;29;20399;-73
2021/09/07 09:25:22;;;;;;;4.40;3.40;;;22.60;55.50;;;;;;4925622;29;20442;-67
2021/09/07 09:27:54;;;;;;;3.75;3.35;;;22.50;55.50;;;;;;4926979;29;20773;-69
2021/09/07 09:30:39;;;;;;;3.90;3.25;;;22.50;55.50;;;;;;4926707;29;20408;-70
2021/09/07 09:33:06;;;;;;;3.80;3.30;;;22.50;55.60;;;;;;4926493;29;21223;-73
2021/09/07 09:35:47;;;;;;;4.57;3.65;;;22.50;55.50;;;;;;4926911;29;20427;-72
2021/09/07 09:38:13;;;;;;;4.05;3.65;;;22.50;55.40;;;;;;4926096;29;20801;-70
2021/09/07 09:40:39;;;;;;;4.20;3.47;;;22.50;55.40;;;;;;4925772;29;20746;-72
2021/09/07 09:43:33;;;;;;;4.05;3.45;;;22.60;55.50;;;;;;4914513;29;20908;-72
2021/09/07 09:46:23;;;;;;;4.43;3.88;;;22.60;55.50;;;;;;4926480;29;20462;-70
2021/09/07 09:48:49;;;;;;;3.80;3.40;;;22.50;55.40;;;;;;4926644;29;20391;-71
2021/09/07 09:51:21;;;;;;;4.32;3.60;;;22.60;56.10;;;;;;4924869;29;20490;-73
2021/09/07 09:53:50;;;;;;;3.90;3.50;;;22.60;55.50;;;;;;4925835;29;20398;-73
2021/09/07 09:56:17;;;;;;;4.30;3.60;;;22.60;55.60;;;;;;4925947;29;20833;-72
2021/09/07 09:58:43;;;;;;;4.18;3.75;;;22.60;55.50;;;;;;4926102;29;20399;-73
2021/09/07 10:01:09;;;;;;;4.40;3.60;;;22.60;55.60;;;;;;4926622;29;21362;-66
2021/09/07 10:03:39;;;;;;;4.20;3.80;;;22.60;55.50;;;;;;4926199;29;21078;-72
2021/09/07 10:06:06;;;;;;;4.40;3.75;;;22.60;55.60;;;;;;4925600;29;20411;-71
2021/09/07 10:08:32;;;;;;;4.60;3.65;;;22.60;55.60;;;;;;4925853;29;20399;-67
2021/09/07 10:11:03;;;;;;;5.30;3.80;;;22.60;55.60;;;;;;4926155;29;20939;-73
2021/09/07 10:13:32;;;;;;;4.22;3.45;;;22.60;55.60;;;;;;4926039;29;20388;-69
2021/09/07 10:16:11;;;;;;;4.55;3.92;;;22.60;55.60;;;;;;4925918;29;20411;-73
2021/09/07 10:23:50;;;;;;;4.40;3.53;;;22.60;55.60;;;;;;4925832;29;20443;-72
2021/09/07 10:26:17;;;;;;;4.45;3.90;;;22.60;55.60;;;;;;4925170;29;20484;-72
2021/09/07 10:28:45;;;;;;;4.20;3.60;;;22.60;55.60;;;;;;4909362;29;20419;-73
2021/09/07 10:31:16;;;;;;;4.68;3.65;;;22.60;55.60;;;;;;4938619;28;20414;-72
2021/09/07 10:33:44;;;;;;;5.43;3.70;;;22.60;55.50;;;;;;4923224;29;20403;-71
2021/09/07 10:36:11;;;;;;;4.20;3.67;;;22.70;55.60;;;;;;4924442;29;21034;-69
2021/09/07 10:38:37;;;;;;;4.10;3.70;;;22.60;55.50;;;;;;4924650;29;21011;-72
2021/09/07 10:41:03;;;;;;;4.22;3.75;;;22.60;55.50;;;;;;4923542;29;20494;-72
2021/09/07 10:43:48;;;;;;;4.60;3.60;;;22.60;55.50;;;;;;4920532;29;20531;-69
2021/09/07 10:46:16;;;;;;;4.40;3.63;;;22.70;55.50;;;;;;4923822;29;20999;-69
2021/09/07 10:48:43;;;;;;;4.90;3.90;;;22.70;55.50;;;;;;4922750;29;20459;-67
2021/09/07 10:51:08;;;;;;;4.20;3.63;;;22.70;55.50;;;;;;4924790;29;20503;-73
2021/09/07 10:53:34;;;;;;;4.47;3.73;;;22.70;55.40;;;;;;4923862;29;20388;-73
2021/09/07 10:56:23;;;;;;;4.43;3.70;;;22.70;55.40;;;;;;4921712;29;20411;-72
2021/09/07 10:58:49;;;;;;;4.47;3.80;;;22.70;55.40;;;;;;4923254;29;20563;-73
2021/09/07 11:01:29;;;;;;;4.13;3.57;;;22.70;55.40;;;;;;4924504;29;20874;-72
2021/09/07 11:04:29;;;;;;;5.15;4.03;;;22.70;55.30;;;;;;4929334;28;20479;-72
2021/09/07 11:06:55;;;;;;;4.43;3.65;;;22.70;55.20;;;;;;4924525;29;20407;-73
2021/09/07 11:09:48;;;;;;;4.53;3.83;;;22.70;55.30;;;;;;4924191;29;20454;-72
2021/09/07 11:12:30;;;;;;;4.40;3.80;;;22.70;55.30;;;;;;4923556;29;20427;-72
2021/09/07 11:15:08;;;;;;;4.15;3.70;;;22.70;55.20;;;;;;4923864;29;20996;-67
2021/09/07 11:17:35;;;;;;;4.50;3.85;;;22.70;55.20;;;;;;4924061;29;20415;-66
2021/09/07 11:20:04;;;;;;;5.37;3.97;;;22.70;55.20;;;;;;4924651;29;21266;-68
2021/09/07 11:22:33;;;;;;;4.60;3.75;;;22.70;55.20;;;;;;4925068;29;20403;-66
2021/09/07 11:25:11;;;;;;;4.85;3.90;;;22.70;55.10;;;;;;4924628;29;20411;-72
2021/09/07 11:27:54;;;;;;;5.05;3.90;;;22.70;55.20;;;;;;4925058;29;20395;-72
2021/09/07 11:30:36;;;;;;;4.78;4.00;;;22.70;55.10;;;;;;4925093;29;20458;-73
2021/09/07 11:33:06;;;;;;;4.00;3.55;;;22.70;55.20;;;;;;4925534;29;20486;-73
2021/09/07 11:35:45;;;;;;;4.23;3.70;;;22.70;55.20;;;;;;4924054;29;20571;-73
2021/09/07 11:38:13;;;;;;;4.50;3.60;;;22.70;55.10;;;;;;4923772;29;20551;-73
2021/09/07 11:40:48;;;;;;;4.40;3.72;;;22.70;55.10;;;;;;4924987;28;20913;-69
2021/09/07 11:43:26;;;;;;;4.27;3.60;;;22.80;55.20;;;;;;4925497;29;20413;-74
2021/09/07 11:46:04;;;;;;;4.28;3.70;;;22.70;55.10;;;;;;4925707;29;20407;-72
2021/09/07 11:48:30;;;;;;;4.43;3.40;;;22.70;55.10;;;;;;4908742;29;20435;-71
2021/09/07 11:50:56;;;;;;;4.75;3.85;;;22.70;55.10;;;;;;4925524;29;20411;-73
2021/09/07 11:53:22;;;;;;;4.27;3.83;;;22.80;55.10;;;;;;4924607;29;20403;-71
2021/09/07 11:55:52;;;;;;;4.63;3.80;;;22.70;55.00;;;;;;4924900;29;20431;-74
2021/09/07 11:58:24;;;;;;;4.18;3.53;;;22.70;55.00;;;;;;4922922;29;20400;-73
2021/09/07 12:01:11;;;;;;;4.35;3.90;;;22.80;55.00;;;;;;4925109;29;20515;-68
2021/09/07 12:03:42;;;;;;;4.43;3.50;;;22.70;55.00;;;;;;4927017;29;20491;-73
2021/09/07 12:06:11;;;;;;;4.35;3.80;;;22.80;54.90;;;;;;4928022;29;20414;-70
2021/09/07 12:08:48;;;;;;;4.53;4.07;;;22.80;55.00;;;;;;4928229;29;20457;-72
2021/09/07 12:11:28;;;;;;;4.47;3.90;;;22.70;54.90;;;;;;4928267;29;20406;-70
2021/09/07 12:14:07;;;;;;;4.72;3.85;;;22.80;55.00;;;;;;4928176;29;20411;-73
2021/09/07 12:16:35;;;;;;;4.50;3.80;;;22.80;54.90;;;;;;4927767;28;20481;-72
2021/09/07 12:19:23;;;;;;;4.35;3.92;;;22.70;54.90;;;;;;4928094;29;20524;-74
2021/09/07 12:22:17;;;;;;;4.35;3.80;;;22.70;54.90;;;;;;4927884;29;20482;-71
2021/09/07 12:25:00;;;;;;;4.53;3.65;;;22.80;54.90;;;;;;4933415;29;20403;-70
2021/09/07 12:27:30;;;;;;;3.95;3.38;;;22.70;54.80;;;;;;4926478;29;20410;-73
2021/09/07 12:30:21;;;;;;;4.38;3.88;;;22.80;54.80;;;;;;4927848;29;20801;-65
2021/09/07 12:32:51;;;;;;;4.70;4.00;;;22.80;54.70;;;;;;4927799;29;20820;-68
2021/09/07 12:35:26;;;;;;;4.40;3.80;;;22.80;54.80;;;;;;4926338;29;20431;-71
2021/09/07 12:37:51;;;;;;;4.40;4.00;;;22.80;54.70;;;;;;4927927;29;20392;-71
2021/09/07 12:40:17;;;;;;;4.70;4.00;;;22.80;54.60;;;;;;4927240;29;20462;-67
2021/09/07 12:42:43;;;;;;;4.60;3.90;;;22.80;54.50;;;;;;4928095;29;21578;-72
2021/09/07 12:45:09;;;;;;;4.55;3.80;;;22.80;54.60;;;;;;4927859;29;20403;-73
2021/09/07 12:47:36;;;;;;;4.63;3.90;;;22.80;54.60;;;;;;4927489;29;20407;-70
2021/09/07 12:50:04;;;;;;;4.88;3.90;;;22.80;54.60;;;;;;4927786;29;20741;-69
2021/09/07 12:52:30;;;;;;;4.22;3.83;;;22.80;54.60;;;;;;4927477;29;20566;-74
2021/09/07 12:54:56;;;;;;;4.50;3.83;;;22.80;54.50;;;;;;4927413;29;20428;-69
2021/09/07 12:57:23;;;;;;;4.60;3.77;;;22.80;54.70;;;;;;4927623;29;20418;-73